sensor_id;sensor_type;location;lat;lon;timestamp;P1;durP1;ratioP1;P2;durP2;ratioP2
66607;SDS011;53462;39.616;8.824;2023-04-24T00:00:27;16.45;;;5.35;;
66607;SDS011;53462;39.616;8.824;2023-04-24T00:02:53;14.20;;;4.50;;
66607;SDS011;53462;39.616;8.824;2023-04-24T00:05:22;9.77;;;4.40;;
66607;SDS011;53462;39.616;8.824;2023-04-24T00:07:48;12.32;;;4.82;;
66607;SDS011;53462;39.616;8.824;2023-04-24T00:10:18;10.25;;;4.30;;
66607;SDS011;53462;39.616;8.824;2023-04-24T00:12:44;10.10;;;4.60;;
66607;SDS011;53462;39.616;8.824;2023-04-24T00:15:10;10.43;;;4.75;;
66607;SDS011;53462;39.616;8.824;2023-04-24T00:17:36;16.45;;;6.38;;
66607;SDS011;53462;39.616;8.824;2023-04-24T00:20:02;12.70;;;4.80;;
66607;SDS011;53462;39.616;8.824;2023-04-24T00:22:30;12.77;;;4.75;;
66607;SDS011;53462;39.616;8.824;2023-04-24T00:24:56;15.65;;;6.20;;
66607;SDS011;53462;39.616;8.824;2023-04-24T00:27:22;11.77;;;4.15;;
66607;SDS011;53462;39.616;8.824;2023-04-24T00:29:49;13.57;;;5.25;;
66607;SDS011;53462;39.616;8.824;2023-04-24T00:32:15;14.23;;;4.30;;
66607;SDS011;53462;39.616;8.824;2023-04-24T00:34:41;13.57;;;5.78;;
66607;SDS011;53462;39.616;8.824;2023-04-24T00:37:07;10.70;;;4.95;;
66607;SDS011;53462;39.616;8.824;2023-04-24T00:39:33;10.15;;;4.45;;
66607;SDS011;53462;39.616;8.824;2023-04-24T00:41:59;11.57;;;4.53;;
66607;SDS011;53462;39.616;8.824;2023-04-24T00:44:26;10.48;;;4.30;;
66607;SDS011;53462;39.616;8.824;2023-04-24T00:46:53;10.38;;;4.25;;
66607;SDS011;53462;39.616;8.824;2023-04-24T00:49:21;13.30;;;5.32;;
66607;SDS011;53462;39.616;8.824;2023-04-24T00:51:47;11.63;;;5.10;;
66607;SDS011;53462;39.616;8.824;2023-04-24T00:54:15;15.48;;;5.28;;
66607;SDS011;53462;39.616;8.824;2023-04-24T00:56:41;10.82;;;4.97;;
66607;SDS011;53462;39.616;8.824;2023-04-24T00:59:09;10.25;;;4.15;;
66607;SDS011;53462;39.616;8.824;2023-04-24T01:01:36;14.05;;;4.30;;
66607;SDS011;53462;39.616;8.824;2023-04-24T01:04:02;15.60;;;5.18;;
66607;SDS011;53462;39.616;8.824;2023-04-24T01:06:28;12.27;;;4.63;;
66607;SDS011;53462;39.616;8.824;2023-04-24T01:08:57;9.88;;;3.88;;
66607;SDS011;53462;39.616;8.824;2023-04-24T01:11:25;9.65;;;4.30;;
66607;SDS011;53462;39.616;8.824;2023-04-24T01:13:51;11.55;;;4.55;;
66607;SDS011;53462;39.616;8.824;2023-04-24T01:16:18;9.75;;;4.63;;
66607;SDS011;53462;39.616;8.824;2023-04-24T01:18:46;9.27;;;4.07;;
66607;SDS011;53462;39.616;8.824;2023-04-24T01:21:13;11.48;;;4.22;;
66607;SDS011;53462;39.616;8.824;2023-04-24T01:23:42;8.85;;;4.15;;
66607;SDS011;53462;39.616;8.824;2023-04-24T01:26:09;12.50;;;4.40;;
66607;SDS011;53462;39.616;8.824;2023-04-24T01:28:35;8.02;;;4.00;;
66607;SDS011;53462;39.616;8.824;2023-04-24T01:31:07;14.15;;;4.30;;
66607;SDS011;53462;39.616;8.824;2023-04-24T01:33:33;11.73;;;4.55;;
66607;SDS011;53462;39.616;8.824;2023-04-24T01:35:59;12.20;;;4.30;;
66607;SDS011;53462;39.616;8.824;2023-04-24T01:38:26;10.02;;;3.90;;
66607;SDS011;53462;39.616;8.824;2023-04-24T01:40:52;13.40;;;4.57;;
66607;SDS011;53462;39.616;8.824;2023-04-24T01:43:18;13.55;;;4.50;;
66607;SDS011;53462;39.616;8.824;2023-04-24T01:45:44;9.63;;;4.10;;
66607;SDS011;53462;39.616;8.824;2023-04-24T01:48:13;9.63;;;4.20;;
66607;SDS011;53462;39.616;8.824;2023-04-24T01:50:39;18.60;;;4.30;;
66607;SDS011;53462;39.616;8.824;2023-04-24T01:53:05;9.82;;;4.18;;
66607;SDS011;53462;39.616;8.824;2023-04-24T01:55:31;11.05;;;4.90;;
66607;SDS011;53462;39.616;8.824;2023-04-24T01:57:57;9.10;;;4.15;;
66607;SDS011;53462;39.616;8.824;2023-04-24T02:00:24;10.15;;;4.07;;
66607;SDS011;53462;39.616;8.824;2023-04-24T02:02:52;11.45;;;4.35;;
66607;SDS011;53462;39.616;8.824;2023-04-24T02:05:18;12.77;;;3.95;;
66607;SDS011;53462;39.616;8.824;2023-04-24T02:07:43;10.98;;;4.18;;
66607;SDS011;53462;39.616;8.824;2023-04-24T02:10:10;11.63;;;4.50;;
66607;SDS011;53462;39.616;8.824;2023-04-24T02:12:41;13.70;;;4.22;;
66607;SDS011;53462;39.616;8.824;2023-04-24T02:15:07;10.57;;;4.10;;
66607;SDS011;53462;39.616;8.824;2023-04-24T02:17:36;8.77;;;4.35;;
66607;SDS011;53462;39.616;8.824;2023-04-24T02:20:03;9.60;;;3.80;;
66607;SDS011;53462;39.616;8.824;2023-04-24T02:22:30;15.60;;;3.97;;
66607;SDS011;53462;39.616;8.824;2023-04-24T02:25:00;12.23;;;3.42;;
66607;SDS011;53462;39.616;8.824;2023-04-24T02:27:26;9.63;;;3.35;;
66607;SDS011;53462;39.616;8.824;2023-04-24T02:29:52;8.25;;;3.40;;
66607;SDS011;53462;39.616;8.824;2023-04-24T02:32:18;10.20;;;3.60;;
66607;SDS011;53462;39.616;8.824;2023-04-24T02:34:44;12.25;;;3.55;;
66607;SDS011;53462;39.616;8.824;2023-04-24T02:37:11;9.95;;;3.65;;
66607;SDS011;53462;39.616;8.824;2023-04-24T02:39:37;10.05;;;3.63;;
66607;SDS011;53462;39.616;8.824;2023-04-24T02:42:03;7.40;;;3.22;;
66607;SDS011;53462;39.616;8.824;2023-04-24T02:44:29;9.57;;;2.95;;
66607;SDS011;53462;39.616;8.824;2023-04-24T02:46:55;7.70;;;3.67;;
66607;SDS011;53462;39.616;8.824;2023-04-24T02:49:22;11.18;;;3.38;;
66607;SDS011;53462;39.616;8.824;2023-04-24T02:51:48;8.65;;;3.00;;
66607;SDS011;53462;39.616;8.824;2023-04-24T02:54:14;10.23;;;3.78;;
66607;SDS011;53462;39.616;8.824;2023-04-24T02:56:40;7.75;;;3.40;;
66607;SDS011;53462;39.616;8.824;2023-04-24T02:59:07;8.13;;;3.83;;
66607;SDS011;53462;39.616;8.824;2023-04-24T03:01:33;9.70;;;3.72;;
66607;SDS011;53462;39.616;8.824;2023-04-24T03:03:59;8.13;;;3.10;;
66607;SDS011;53462;39.616;8.824;2023-04-24T03:06:26;10.75;;;3.42;;
66607;SDS011;53462;39.616;8.824;2023-04-24T03:08:52;10.73;;;3.60;;
66607;SDS011;53462;39.616;8.824;2023-04-24T03:11:18;8.32;;;3.55;;
66607;SDS011;53462;39.616;8.824;2023-04-24T03:13:44;9.60;;;3.70;;
66607;SDS011;53462;39.616;8.824;2023-04-24T03:16:10;9.88;;;3.72;;
66607;SDS011;53462;39.616;8.824;2023-04-24T03:18:36;8.27;;;3.50;;
66607;SDS011;53462;39.616;8.824;2023-04-24T03:21:04;11.73;;;3.65;;
66607;SDS011;53462;39.616;8.824;2023-04-24T03:23:30;11.63;;;3.78;;
66607;SDS011;53462;39.616;8.824;2023-04-24T03:25:56;10.07;;;3.67;;
66607;SDS011;53462;39.616;8.824;2023-04-24T03:28:22;11.45;;;3.50;;
66607;SDS011;53462;39.616;8.824;2023-04-24T03:30:56;10.98;;;3.70;;
66607;SDS011;53462;39.616;8.824;2023-04-24T03:33:23;8.20;;;3.55;;
66607;SDS011;53462;39.616;8.824;2023-04-24T03:35:58;10.00;;;3.35;;
66607;SDS011;53462;39.616;8.824;2023-04-24T03:38:24;11.20;;;3.67;;
66607;SDS011;53462;39.616;8.824;2023-04-24T03:40:50;8.98;;;3.55;;
66607;SDS011;53462;39.616;8.824;2023-04-24T03:43:37;13.88;;;4.32;;
66607;SDS011;53462;39.616;8.824;2023-04-24T03:46:04;12.73;;;3.80;;
66607;SDS011;53462;39.616;8.824;2023-04-24T03:48:33;11.00;;;3.92;;
66607;SDS011;53462;39.616;8.824;2023-04-24T03:51:00;10.68;;;3.60;;
66607;SDS011;53462;39.616;8.824;2023-04-24T03:53:27;10.10;;;3.60;;
66607;SDS011;53462;39.616;8.824;2023-04-24T03:55:54;8.55;;;3.70;;
66607;SDS011;53462;39.616;8.824;2023-04-24T03:58:20;19.55;;;5.53;;
66607;SDS011;53462;39.616;8.824;2023-04-24T04:00:47;19.42;;;6.40;;
66607;SDS011;53462;39.616;8.824;2023-04-24T04:03:31;18.85;;;6.43;;
66607;SDS011;53462;39.616;8.824;2023-04-24T04:05:57;16.15;;;5.53;;
66607;SDS011;53462;39.616;8.824;2023-04-24T04:08:23;16.27;;;4.65;;
66607;SDS011;53462;39.616;8.824;2023-04-24T04:10:49;10.38;;;3.85;;
66607;SDS011;53462;39.616;8.824;2023-04-24T04:13:15;8.77;;;3.33;;
66607;SDS011;53462;39.616;8.824;2023-04-24T04:15:41;12.32;;;4.20;;
66607;SDS011;53462;39.616;8.824;2023-04-24T04:18:07;7.80;;;3.75;;
66607;SDS011;53462;39.616;8.824;2023-04-24T04:20:33;9.95;;;3.63;;
66607;SDS011;53462;39.616;8.824;2023-04-24T04:22:59;13.15;;;4.00;;
66607;SDS011;53462;39.616;8.824;2023-04-24T04:25:37;10.90;;;3.85;;
66607;SDS011;53462;39.616;8.824;2023-04-24T04:28:03;10.25;;;3.85;;
66607;SDS011;53462;39.616;8.824;2023-04-24T04:30:29;12.50;;;4.80;;
66607;SDS011;53462;39.616;8.824;2023-04-24T04:33:01;9.52;;;4.88;;
66607;SDS011;53462;39.616;8.824;2023-04-24T04:35:28;11.65;;;4.78;;
66607;SDS011;53462;39.616;8.824;2023-04-24T04:37:54;10.63;;;4.63;;
66607;SDS011;53462;39.616;8.824;2023-04-24T04:40:46;12.93;;;3.80;;
66607;SDS011;53462;39.616;8.824;2023-04-24T04:43:14;9.32;;;3.97;;
66607;SDS011;53462;39.616;8.824;2023-04-24T04:45:48;9.57;;;3.92;;
66607;SDS011;53462;39.616;8.824;2023-04-24T04:48:32;9.25;;;4.13;;
66607;SDS011;53462;39.616;8.824;2023-04-24T04:51:01;10.90;;;3.80;;
66607;SDS011;53462;39.616;8.824;2023-04-24T04:53:27;10.35;;;3.88;;
66607;SDS011;53462;39.616;8.824;2023-04-24T04:55:53;8.60;;;3.47;;
66607;SDS011;53462;39.616;8.824;2023-04-24T04:58:23;14.52;;;3.92;;
66607;SDS011;53462;39.616;8.824;2023-04-24T05:00:53;12.27;;;3.95;;
66607;SDS011;53462;39.616;8.824;2023-04-24T05:03:30;12.25;;;4.40;;
66607;SDS011;53462;39.616;8.824;2023-04-24T05:06:03;12.30;;;4.00;;
66607;SDS011;53462;39.616;8.824;2023-04-24T05:08:33;11.48;;;4.68;;
66607;SDS011;53462;39.616;8.824;2023-04-24T05:10:59;12.35;;;4.68;;
66607;SDS011;53462;39.616;8.824;2023-04-24T05:13:27;9.45;;;4.05;;
66607;SDS011;53462;39.616;8.824;2023-04-24T05:15:53;10.50;;;4.70;;
66607;SDS011;53462;39.616;8.824;2023-04-24T05:18:19;10.55;;;4.65;;
66607;SDS011;53462;39.616;8.824;2023-04-24T05:20:46;11.70;;;4.35;;
66607;SDS011;53462;39.616;8.824;2023-04-24T05:23:12;12.23;;;4.88;;
66607;SDS011;53462;39.616;8.824;2023-04-24T05:25:40;14.73;;;4.72;;
66607;SDS011;53462;39.616;8.824;2023-04-24T05:28:10;16.13;;;4.45;;
66607;SDS011;53462;39.616;8.824;2023-04-24T05:30:37;10.88;;;4.93;;
66607;SDS011;53462;39.616;8.824;2023-04-24T05:33:03;14.23;;;5.40;;
66607;SDS011;53462;39.616;8.824;2023-04-24T05:35:31;11.60;;;4.63;;
66607;SDS011;53462;39.616;8.824;2023-04-24T05:37:57;11.77;;;4.80;;
66607;SDS011;53462;39.616;8.824;2023-04-24T05:40:23;16.42;;;4.38;;
66607;SDS011;53462;39.616;8.824;2023-04-24T05:42:49;12.70;;;4.38;;
66607;SDS011;53462;39.616;8.824;2023-04-24T05:45:15;13.40;;;4.07;;
66607;SDS011;53462;39.616;8.824;2023-04-24T05:47:42;8.35;;;3.90;;
66607;SDS011;53462;39.616;8.824;2023-04-24T05:50:10;11.80;;;3.83;;
66607;SDS011;53462;39.616;8.824;2023-04-24T05:52:36;9.27;;;3.60;;
66607;SDS011;53462;39.616;8.824;2023-04-24T05:55:09;12.52;;;3.72;;
66607;SDS011;53462;39.616;8.824;2023-04-24T05:57:37;9.85;;;3.35;;
66607;SDS011;53462;39.616;8.824;2023-04-24T06:00:03;14.43;;;3.67;;
66607;SDS011;53462;39.616;8.824;2023-04-24T06:02:38;7.93;;;3.67;;
66607;SDS011;53462;39.616;8.824;2023-04-24T06:05:07;9.35;;;3.05;;
66607;SDS011;53462;39.616;8.824;2023-04-24T06:07:33;8.70;;;3.13;;
66607;SDS011;53462;39.616;8.824;2023-04-24T06:10:03;12.68;;;4.03;;
66607;SDS011;53462;39.616;8.824;2023-04-24T06:12:36;10.32;;;3.70;;
66607;SDS011;53462;39.616;8.824;2023-04-24T06:15:07;11.75;;;4.13;;
66607;SDS011;53462;39.616;8.824;2023-04-24T06:17:48;9.85;;;3.25;;
66607;SDS011;53462;39.616;8.824;2023-04-24T06:20:16;10.65;;;3.38;;
66607;SDS011;53462;39.616;8.824;2023-04-24T06:22:42;8.55;;;3.40;;
66607;SDS011;53462;39.616;8.824;2023-04-24T06:25:09;9.65;;;3.45;;
66607;SDS011;53462;39.616;8.824;2023-04-24T06:27:35;11.38;;;3.35;;
66607;SDS011;53462;39.616;8.824;2023-04-24T06:30:02;9.13;;;3.33;;
66607;SDS011;53462;39.616;8.824;2023-04-24T06:32:28;12.32;;;3.83;;
66607;SDS011;53462;39.616;8.824;2023-04-24T06:34:55;10.93;;;3.47;;
66607;SDS011;53462;39.616;8.824;2023-04-24T06:37:21;12.93;;;3.90;;
66607;SDS011;53462;39.616;8.824;2023-04-24T06:39:48;10.13;;;4.45;;
66607;SDS011;53462;39.616;8.824;2023-04-24T06:42:14;13.52;;;5.18;;
66607;SDS011;53462;39.616;8.824;2023-04-24T06:44:42;12.25;;;3.85;;
66607;SDS011;53462;39.616;8.824;2023-04-24T06:47:08;8.13;;;3.30;;
66607;SDS011;53462;39.616;8.824;2023-04-24T06:49:36;8.48;;;3.63;;
66607;SDS011;53462;39.616;8.824;2023-04-24T06:52:02;13.68;;;3.80;;
66607;SDS011;53462;39.616;8.824;2023-04-24T06:54:28;12.30;;;3.63;;
66607;SDS011;53462;39.616;8.824;2023-04-24T06:56:55;14.23;;;3.42;;
66607;SDS011;53462;39.616;8.824;2023-04-24T06:59:25;5.88;;;3.03;;
66607;SDS011;53462;39.616;8.824;2023-04-24T07:01:51;8.50;;;3.60;;
66607;SDS011;53462;39.616;8.824;2023-04-24T07:04:17;10.13;;;3.60;;
66607;SDS011;53462;39.616;8.824;2023-04-24T07:06:44;10.48;;;3.20;;
66607;SDS011;53462;39.616;8.824;2023-04-24T07:09:11;10.48;;;3.15;;
66607;SDS011;53462;39.616;8.824;2023-04-24T07:11:39;10.43;;;3.38;;
66607;SDS011;53462;39.616;8.824;2023-04-24T07:14:06;7.38;;;3.35;;
66607;SDS011;53462;39.616;8.824;2023-04-24T07:16:32;7.60;;;2.90;;
66607;SDS011;53462;39.616;8.824;2023-04-24T07:18:58;9.93;;;3.03;;
66607;SDS011;53462;39.616;8.824;2023-04-24T07:21:24;10.73;;;2.90;;
66607;SDS011;53462;39.616;8.824;2023-04-24T07:23:50;8.10;;;2.97;;
66607;SDS011;53462;39.616;8.824;2023-04-24T07:26:17;9.38;;;3.10;;
66607;SDS011;53462;39.616;8.824;2023-04-24T07:28:43;5.78;;;3.00;;
66607;SDS011;53462;39.616;8.824;2023-04-24T07:31:10;10.30;;;2.92;;
66607;SDS011;53462;39.616;8.824;2023-04-24T07:33:37;8.00;;;2.90;;
66607;SDS011;53462;39.616;8.824;2023-04-24T07:36:03;9.07;;;2.80;;
66607;SDS011;53462;39.616;8.824;2023-04-24T07:38:29;11.38;;;3.20;;
66607;SDS011;53462;39.616;8.824;2023-04-24T07:40:56;7.75;;;3.00;;
66607;SDS011;53462;39.616;8.824;2023-04-24T07:43:22;7.93;;;2.50;;
66607;SDS011;53462;39.616;8.824;2023-04-24T07:45:51;9.63;;;2.75;;
66607;SDS011;53462;39.616;8.824;2023-04-24T07:48:18;9.60;;;2.67;;
66607;SDS011;53462;39.616;8.824;2023-04-24T07:50:44;5.35;;;2.53;;
66607;SDS011;53462;39.616;8.824;2023-04-24T07:53:10;8.85;;;2.75;;
66607;SDS011;53462;39.616;8.824;2023-04-24T07:55:36;7.85;;;2.90;;
66607;SDS011;53462;39.616;8.824;2023-04-24T07:58:02;5.97;;;2.42;;
66607;SDS011;53462;39.616;8.824;2023-04-24T08:00:28;6.63;;;2.50;;
66607;SDS011;53462;39.616;8.824;2023-04-24T08:02:54;9.02;;;2.50;;
66607;SDS011;53462;39.616;8.824;2023-04-24T08:05:20;9.80;;;2.78;;
66607;SDS011;53462;39.616;8.824;2023-04-24T08:07:46;6.22;;;2.85;;
66607;SDS011;53462;39.616;8.824;2023-04-24T08:10:14;6.53;;;2.55;;
66607;SDS011;53462;39.616;8.824;2023-04-24T08:12:42;8.98;;;2.67;;
66607;SDS011;53462;39.616;8.824;2023-04-24T08:15:08;10.05;;;2.67;;
66607;SDS011;53462;39.616;8.824;2023-04-24T08:17:35;7.47;;;2.53;;
66607;SDS011;53462;39.616;8.824;2023-04-24T08:20:02;7.18;;;2.40;;
66607;SDS011;53462;39.616;8.824;2023-04-24T08:22:30;10.07;;;2.50;;
66607;SDS011;53462;39.616;8.824;2023-04-24T08:24:57;4.70;;;2.28;;
66607;SDS011;53462;39.616;8.824;2023-04-24T08:27:25;12.60;;;2.58;;
66607;SDS011;53462;39.616;8.824;2023-04-24T08:29:52;6.28;;;2.50;;
66607;SDS011;53462;39.616;8.824;2023-04-24T08:32:19;4.22;;;2.20;;
66607;SDS011;53462;39.616;8.824;2023-04-24T08:34:45;9.80;;;2.60;;
66607;SDS011;53462;39.616;8.824;2023-04-24T08:37:11;7.97;;;2.85;;
66607;SDS011;53462;39.616;8.824;2023-04-24T08:39:37;4.47;;;2.40;;
66607;SDS011;53462;39.616;8.824;2023-04-24T08:42:04;5.97;;;1.98;;
66607;SDS011;53462;39.616;8.824;2023-04-24T08:44:33;8.70;;;2.75;;
66607;SDS011;53462;39.616;8.824;2023-04-24T08:47:03;6.75;;;2.65;;
66607;SDS011;53462;39.616;8.824;2023-04-24T08:49:30;7.90;;;2.50;;
66607;SDS011;53462;39.616;8.824;2023-04-24T08:51:56;4.20;;;2.60;;
66607;SDS011;53462;39.616;8.824;2023-04-24T08:54:23;8.38;;;2.50;;
66607;SDS011;53462;39.616;8.824;2023-04-24T08:56:50;7.00;;;2.67;;
66607;SDS011;53462;39.616;8.824;2023-04-24T08:59:18;7.03;;;2.45;;
66607;SDS011;53462;39.616;8.824;2023-04-24T09:01:46;4.30;;;2.05;;
66607;SDS011;53462;39.616;8.824;2023-04-24T09:04:13;5.85;;;1.98;;
66607;SDS011;53462;39.616;8.824;2023-04-24T09:06:41;5.18;;;1.98;;
66607;SDS011;53462;39.616;8.824;2023-04-24T09:09:08;6.15;;;2.20;;
66607;SDS011;53462;39.616;8.824;2023-04-24T09:11:36;5.72;;;1.80;;
66607;SDS011;53462;39.616;8.824;2023-04-24T09:14:02;7.43;;;2.10;;
66607;SDS011;53462;39.616;8.824;2023-04-24T09:16:29;6.47;;;1.80;;
66607;SDS011;53462;39.616;8.824;2023-04-24T09:18:58;5.20;;;1.98;;
66607;SDS011;53462;39.616;8.824;2023-04-24T09:21:24;7.20;;;1.80;;
66607;SDS011;53462;39.616;8.824;2023-04-24T09:23:59;4.93;;;1.70;;
66607;SDS011;53462;39.616;8.824;2023-04-24T09:26:28;5.80;;;1.70;;
66607;SDS011;53462;39.616;8.824;2023-04-24T09:28:57;5.32;;;2.00;;
66607;SDS011;53462;39.616;8.824;2023-04-24T09:31:27;3.65;;;1.60;;
66607;SDS011;53462;39.616;8.824;2023-04-24T09:33:55;4.97;;;1.90;;
66607;SDS011;53462;39.616;8.824;2023-04-24T09:36:35;4.45;;;1.70;;
66607;SDS011;53462;39.616;8.824;2023-04-24T09:39:03;6.80;;;1.85;;
66607;SDS011;53462;39.616;8.824;2023-04-24T09:41:31;4.30;;;1.92;;
66607;SDS011;53462;39.616;8.824;2023-04-24T09:44:19;2.95;;;1.60;;
66607;SDS011;53462;39.616;8.824;2023-04-24T09:46:57;4.10;;;1.90;;
66607;SDS011;53462;39.616;8.824;2023-04-24T09:51:51;4.93;;;1.67;;
66607;SDS011;53462;39.616;8.824;2023-04-24T09:54:18;5.72;;;1.52;;
66607;SDS011;53462;39.616;8.824;2023-04-24T09:56:46;4.45;;;1.50;;
66607;SDS011;53462;39.616;8.824;2023-04-24T09:59:16;5.55;;;1.55;;
66607;SDS011;53462;39.616;8.824;2023-04-24T10:01:44;4.38;;;1.42;;
66607;SDS011;53462;39.616;8.824;2023-04-24T10:04:53;4.32;;;1.40;;
66607;SDS011;53462;39.616;8.824;2023-04-24T10:07:02;4.72;;;1.42;;
66607;SDS011;53462;39.616;8.824;2023-04-24T10:09:31;3.90;;;1.27;;
66607;SDS011;53462;39.616;8.824;2023-04-24T10:11:58;3.72;;;1.40;;
66607;SDS011;53462;39.616;8.824;2023-04-24T10:14:27;2.65;;;1.30;;
66607;SDS011;53462;39.616;8.824;2023-04-24T10:16:55;6.85;;;1.55;;
66607;SDS011;53462;39.616;8.824;2023-04-24T10:19:25;3.60;;;1.17;;
66607;SDS011;53462;39.616;8.824;2023-04-24T10:21:51;2.20;;;1.30;;
66607;SDS011;53462;39.616;8.824;2023-04-24T10:24:19;3.33;;;1.23;;
66607;SDS011;53462;39.616;8.824;2023-04-24T10:26:48;5.45;;;1.20;;
66607;SDS011;53462;39.616;8.824;2023-04-24T10:29:14;3.95;;;1.27;;
66607;SDS011;53462;39.616;8.824;2023-04-24T10:31:43;3.35;;;1.30;;
66607;SDS011;53462;39.616;8.824;2023-04-24T10:34:12;4.43;;;1.23;;
66607;SDS011;53462;39.616;8.824;2023-04-24T10:36:40;3.05;;;1.20;;
66607;SDS011;53462;39.616;8.824;2023-04-24T10:39:12;2.63;;;1.25;;
66607;SDS011;53462;39.616;8.824;2023-04-24T10:41:40;3.67;;;1.52;;
66607;SDS011;53462;39.616;8.824;2023-04-24T10:44:12;6.03;;;1.52;;
66607;SDS011;53462;39.616;8.824;2023-04-24T10:46:42;7.50;;;2.90;;
66607;SDS011;53462;39.616;8.824;2023-04-24T10:49:09;6.45;;;1.80;;
66607;SDS011;53462;39.616;8.824;2023-04-24T10:51:48;4.30;;;1.95;;
66607;SDS011;53462;39.616;8.824;2023-04-24T10:59:24;2.80;;;1.30;;
66607;SDS011;53462;39.616;8.824;2023-04-24T11:01:52;2.17;;;1.20;;
66607;SDS011;53462;39.616;8.824;2023-04-24T11:04:28;5.32;;;1.50;;
66607;SDS011;53462;39.616;8.824;2023-04-24T11:06:56;3.95;;;1.27;;
66607;SDS011;53462;39.616;8.824;2023-04-24T11:09:22;4.10;;;1.20;;
66607;SDS011;53462;39.616;8.824;2023-04-24T11:20:05;4.85;;;1.40;;
66607;SDS011;53462;39.616;8.824;2023-04-24T11:22:33;2.88;;;1.58;;
66607;SDS011;53462;39.616;8.824;2023-04-24T11:25:01;3.55;;;1.35;;
66607;SDS011;53462;39.616;8.824;2023-04-24T11:27:30;5.57;;;1.35;;
66607;SDS011;53462;39.616;8.824;2023-04-24T11:30:00;6.30;;;1.60;;
66607;SDS011;53462;39.616;8.824;2023-04-24T11:35:08;4.32;;;1.10;;
66607;SDS011;53462;39.616;8.824;2023-04-24T11:37:43;3.83;;;1.40;;
66607;SDS011;53462;39.616;8.824;2023-04-24T11:40:12;2.20;;;1.13;;
66607;SDS011;53462;39.616;8.824;2023-04-24T11:42:43;4.50;;;1.30;;
66607;SDS011;53462;39.616;8.824;2023-04-24T11:47:37;3.65;;;1.30;;
66607;SDS011;53462;39.616;8.824;2023-04-24T11:50:05;6.47;;;1.38;;
66607;SDS011;53462;39.616;8.824;2023-04-24T11:52:33;4.70;;;1.83;;
66607;SDS011;53462;39.616;8.824;2023-04-24T11:55:03;4.72;;;2.03;;
66607;SDS011;53462;39.616;8.824;2023-04-24T11:57:29;2.78;;;1.30;;
66607;SDS011;53462;39.616;8.824;2023-04-24T12:00:03;3.33;;;1.20;;
66607;SDS011;53462;39.616;8.824;2023-04-24T12:02:37;2.72;;;0.95;;
66607;SDS011;53462;39.616;8.824;2023-04-24T12:05:03;3.53;;;1.40;;
66607;SDS011;53462;39.616;8.824;2023-04-24T12:07:29;3.78;;;1.30;;
66607;SDS011;53462;39.616;8.824;2023-04-24T12:10:08;3.55;;;1.25;;
66607;SDS011;53462;39.616;8.824;2023-04-24T12:12:34;3.33;;;1.10;;
66607;SDS011;53462;39.616;8.824;2023-04-24T12:15:00;2.78;;;1.05;;
66607;SDS011;53462;39.616;8.824;2023-04-24T12:17:28;7.65;;;1.50;;
66607;SDS011;53462;39.616;8.824;2023-04-24T12:20:06;3.67;;;1.25;;
66607;SDS011;53462;39.616;8.824;2023-04-24T12:22:43;5.82;;;1.10;;
66607;SDS011;53462;39.616;8.824;2023-04-24T12:25:13;4.00;;;1.00;;
66607;SDS011;53462;39.616;8.824;2023-04-24T12:27:39;1.65;;;0.90;;
66607;SDS011;53462;39.616;8.824;2023-04-24T12:30:09;2.92;;;1.10;;
66607;SDS011;53462;39.616;8.824;2023-04-24T12:32:42;3.45;;;1.20;;
66607;SDS011;53462;39.616;8.824;2023-04-24T12:35:09;3.85;;;0.93;;
66607;SDS011;53462;39.616;8.824;2023-04-24T12:37:35;4.63;;;1.30;;
66607;SDS011;53462;39.616;8.824;2023-04-24T12:40:03;3.58;;;1.33;;
66607;SDS011;53462;39.616;8.824;2023-04-24T12:42:34;2.88;;;1.25;;
66607;SDS011;53462;39.616;8.824;2023-04-24T12:45:07;2.13;;;0.85;;
66607;SDS011;53462;39.616;8.824;2023-04-24T12:47:33;2.97;;;0.85;;
66607;SDS011;53462;39.616;8.824;2023-04-24T12:50:00;1.92;;;0.80;;
66607;SDS011;53462;39.616;8.824;2023-04-24T12:52:27;2.97;;;0.80;;
66607;SDS011;53462;39.616;8.824;2023-04-24T12:54:58;1.67;;;0.77;;
66607;SDS011;53462;39.616;8.824;2023-04-24T12:57:26;2.78;;;1.35;;
66607;SDS011;53462;39.616;8.824;2023-04-24T12:59:54;3.30;;;0.80;;
66607;SDS011;53462;39.616;8.824;2023-04-24T13:02:21;3.00;;;0.95;;
66607;SDS011;53462;39.616;8.824;2023-04-24T13:04:48;2.33;;;0.90;;
66607;SDS011;53462;39.616;8.824;2023-04-24T13:07:15;3.30;;;1.00;;
66607;SDS011;53462;39.616;8.824;2023-04-24T13:09:44;1.67;;;0.88;;
66607;SDS011;53462;39.616;8.824;2023-04-24T13:12:10;5.55;;;0.85;;
66607;SDS011;53462;39.616;8.824;2023-04-24T13:14:37;3.38;;;0.90;;
66607;SDS011;53462;39.616;8.824;2023-04-24T13:17:03;1.65;;;0.77;;
66607;SDS011;53462;39.616;8.824;2023-04-24T13:19:34;2.67;;;0.80;;
66607;SDS011;53462;39.616;8.824;2023-04-24T13:22:01;2.78;;;0.82;;
66607;SDS011;53462;39.616;8.824;2023-04-24T13:24:27;4.25;;;0.80;;
66607;SDS011;53462;39.616;8.824;2023-04-24T13:26:53;3.13;;;0.80;;
66607;SDS011;53462;39.616;8.824;2023-04-24T13:29:19;3.92;;;1.00;;
66607;SDS011;53462;39.616;8.824;2023-04-24T13:31:49;1.33;;;0.90;;
66607;SDS011;53462;39.616;8.824;2023-04-24T13:34:19;3.25;;;0.93;;
66607;SDS011;53462;39.616;8.824;2023-04-24T13:36:45;3.08;;;0.80;;
66607;SDS011;53462;39.616;8.824;2023-04-24T13:39:11;2.35;;;0.80;;
66607;SDS011;53462;39.616;8.824;2023-04-24T13:41:37;1.85;;;1.08;;
66607;SDS011;53462;39.616;8.824;2023-04-24T13:44:04;5.20;;;1.55;;
66607;SDS011;53462;39.616;8.824;2023-04-24T13:46:31;2.15;;;0.70;;
66607;SDS011;53462;39.616;8.824;2023-04-24T13:48:57;2.90;;;0.70;;
66607;SDS011;53462;39.616;8.824;2023-04-24T13:51:25;2.50;;;0.90;;
66607;SDS011;53462;39.616;8.824;2023-04-24T13:53:54;3.42;;;0.80;;
66607;SDS011;53462;39.616;8.824;2023-04-24T13:56:20;5.05;;;0.80;;
66607;SDS011;53462;39.616;8.824;2023-04-24T13:58:47;3.45;;;0.77;;
66607;SDS011;53462;39.616;8.824;2023-04-24T14:01:14;2.25;;;0.80;;
66607;SDS011;53462;39.616;8.824;2023-04-24T14:03:41;2.22;;;0.80;;
66607;SDS011;53462;39.616;8.824;2023-04-24T14:06:08;6.13;;;1.10;;
66607;SDS011;53462;39.616;8.824;2023-04-24T14:08:34;3.03;;;0.73;;
66607;SDS011;53462;39.616;8.824;2023-04-24T14:11:00;2.78;;;0.70;;
66607;SDS011;53462;39.616;8.824;2023-04-24T14:13:26;3.35;;;1.00;;
66607;SDS011;53462;39.616;8.824;2023-04-24T14:15:52;1.33;;;0.70;;
66607;SDS011;53462;39.616;8.824;2023-04-24T14:18:18;2.88;;;0.70;;
66607;SDS011;53462;39.616;8.824;2023-04-24T14:20:45;2.92;;;0.80;;
66607;SDS011;53462;39.616;8.824;2023-04-24T14:23:11;2.55;;;0.82;;
66607;SDS011;53462;39.616;8.824;2023-04-24T14:25:37;2.15;;;0.70;;
66607;SDS011;53462;39.616;8.824;2023-04-24T14:28:03;4.38;;;1.10;;
66607;SDS011;53462;39.616;8.824;2023-04-24T14:30:29;4.72;;;0.80;;
66607;SDS011;53462;39.616;8.824;2023-04-24T14:32:55;3.13;;;0.80;;
66607;SDS011;53462;39.616;8.824;2023-04-24T14:35:21;7.55;;;0.90;;
66607;SDS011;53462;39.616;8.824;2023-04-24T14:37:47;2.83;;;1.08;;
66607;SDS011;53462;39.616;8.824;2023-04-24T14:40:14;8.98;;;0.98;;
66607;SDS011;53462;39.616;8.824;2023-04-24T14:42:40;2.58;;;0.70;;
66607;SDS011;53462;39.616;8.824;2023-04-24T14:45:06;3.38;;;0.77;;
66607;SDS011;53462;39.616;8.824;2023-04-24T14:47:33;2.45;;;0.70;;
66607;SDS011;53462;39.616;8.824;2023-04-24T14:50:02;4.30;;;0.80;;
66607;SDS011;53462;39.616;8.824;2023-04-24T14:52:28;2.90;;;0.60;;
66607;SDS011;53462;39.616;8.824;2023-04-24T14:54:54;5.10;;;1.08;;
66607;SDS011;53462;39.616;8.824;2023-04-24T14:57:21;5.75;;;0.80;;
66607;SDS011;53462;39.616;8.824;2023-04-24T14:59:47;2.75;;;0.82;;
66607;SDS011;53462;39.616;8.824;2023-04-24T15:02:13;2.28;;;0.90;;
66607;SDS011;53462;39.616;8.824;2023-04-24T15:04:39;1.48;;;0.60;;
66607;SDS011;53462;39.616;8.824;2023-04-24T15:07:05;4.72;;;0.85;;